Observation data for Reese Center on 02/14/2018      Previous  Date  Next       Current Mesonet Observations  Soil Data  Daily Summary Page  Observations in Plain Language
KREE 140600Z 20008KT 08/01 A3024 RMK A01 T00760006  RH  062%=      5-min Rain = 0
KREE 140605Z 21008KT 08/01 A3024 RMK A01 T00780007  RH  061%=      5-min Rain = 0
KREE 140610Z 22006KT 08/01 A3024 RMK A01 T00800007  RH  061%=      5-min Rain = 0
KREE 140615Z 22006KT 07/00 A3024 RMK A01 T00730003  RH  061%=      5-min Rain = 0
KREE 140620Z 22007KT 07/00 A3024 RMK A01 T00690004  RH  064%=      5-min Rain = 0
KREE 140625Z 21007KT 07/01 A3024 RMK A01 T00710006  RH  064%=      5-min Rain = 0
KREE 140630Z 22006KT 07/01 A3024 RMK A01 T00720005  RH  063%=      5-min Rain = 0
KREE 140635Z 23006KT 07/00 A3023 RMK A01 T00660001  RH  064%=      5-min Rain = 0
KREE 140640Z 22006KT 06/00 A3023 RMK A01 T00640001  RH  065%=      5-min Rain = 0
KREE 140645Z 22006KT 07/00 A3023 RMK A01 T00650001  RH  064%=      5-min Rain = 0
KREE 140650Z 21008KT 07/00 A3023 RMK A01 T00650001  RH  064%=      5-min Rain = 0
KREE 140655Z 21009KT 06/00 A3023 RMK A01 T00640000  RH  064%=      5-min Rain = 0
KREE 140700Z 22007KT 06/M00 A3023 RMK A01 T00621001  RH  065%=      5-min Rain = 0
KREE 140705Z 23007KT 06/M00 A3022 RMK A01 T00581003  RH  066%=      5-min Rain = 0
KREE 140710Z 23008KT 05/M00 A3022 RMK A01 T00541004  RH  067%=      5-min Rain = 0
KREE 140715Z 22008KT 05/M00 A3022 RMK A01 T00541004  RH  067%=      5-min Rain = 0
KREE 140720Z 22009KT 05/M01 A3022 RMK A01 T00531005  RH  067%=      5-min Rain = 0
KREE 140725Z 22009KT 05/M01 A3022 RMK A01 T00531005  RH  067%=      5-min Rain = 0
KREE 140730Z 21010KT 06/M00 A3023 RMK A01 T00561004  RH  066%=      5-min Rain = 0
KREE 140735Z 21009KT 07/M00 A3023 RMK A01 T00661002  RH  063%=      5-min Rain = 0
KREE 140740Z 21009KT 07/M00 A3023 RMK A01 T00671003  RH  062%=      5-min Rain = 0
KREE 140745Z 22008KT 06/M00 A3023 RMK A01 T00641004  RH  062%=      5-min Rain = 0
KREE 140750Z 22008KT 06/M00 A3023 RMK A01 T00631003  RH  063%=      5-min Rain = 0
KREE 140755Z 22007KT 06/M00 A3022 RMK A01 T00641002  RH  063%=      5-min Rain = 0
KREE 140800Z 22007KT 07/M00 A3022 RMK A01 T00651002  RH  063%=      5-min Rain = 0
KREE 140805Z 21008KT 06/M00 A3022 RMK A01 T00641003  RH  063%=      5-min Rain = 0
KREE 140810Z 22008KT 06/M00 A3022 RMK A01 T00631004  RH  063%=      5-min Rain = 0
KREE 140815Z 22007KT 06/M01 A3022 RMK A01 T00611006  RH  063%=      5-min Rain = 0
KREE 140820Z 21008KT 06/M01 A3022 RMK A01 T00591007  RH  064%=      5-min Rain = 0
KREE 140825Z 21009KT 06/M01 A3022 RMK A01 T00611007  RH  063%=      5-min Rain = 0
KREE 140830Z 21008KT 06/M01 A3022 RMK A01 T00631007  RH  062%=      5-min Rain = 0
KREE 140835Z 21006KT 06/M01 A3022 RMK A01 T00611008  RH  062%=      5-min Rain = 0
KREE 140840Z 21007KT 06/M01 A3021 RMK A01 T00591009  RH  062%=      5-min Rain = 0
KREE 140845Z 21006KT 06/M01 A3021 RMK A01 T00611008  RH  062%=      5-min Rain = 0
KREE 140850Z 19006KT 06/M01 A3021 RMK A01 T00591009  RH  062%=      5-min Rain = 0
KREE 140855Z 21005KT 06/M01 A302 RMK A01 T00571009  RH  063%=      5-min Rain = 0
KREE 140900Z 22006KT 06/M01 A302 RMK A01 T00591007  RH  063%=      5-min Rain = 0
KREE 140905Z 23006KT 06/M01 A302 RMK A01 T00591008  RH  063%=      5-min Rain = 0
KREE 140910Z 22006KT 06/M01 A302 RMK A01 T00571009  RH  063%=      5-min Rain = 0
KREE 140915Z 22006KT 06/M01 A302 RMK A01 T00551010  RH  064%=      5-min Rain = 0
KREE 140920Z 20007KT 05/M01 A302 RMK A01 T00531009  RH  065%=      5-min Rain = 0
KREE 140925Z 21007KT 06/M01 A302 RMK A01 T00571008  RH  064%=      5-min Rain = 0
KREE 140930Z 21007KT 06/M01 A302 RMK A01 T00561010  RH  063%=      5-min Rain = 0
KREE 140935Z 21008KT 06/M01 A302 RMK A01 T00601008  RH  063%=      5-min Rain = 0
KREE 140940Z 20007KT 06/M01 A302 RMK A01 T00601009  RH  062%=      5-min Rain = 0
KREE 140945Z 21007KT 06/M01 A302 RMK A01 T00591010  RH  062%=      5-min Rain = 0
KREE 140950Z 21008KT 06/M01 A302 RMK A01 T00601009  RH  062%=      5-min Rain = 0
KREE 140955Z 20007KT 06/M01 A302 RMK A01 T00571012  RH  062%=      5-min Rain = 0
KREE 141000Z 21007KT 05/M01 A302 RMK A01 T00531012  RH  063%=      5-min Rain = 0
KREE 141005Z 20007KT 05/M01 A302 RMK A01 T00491014  RH  064%=      5-min Rain = 0
KREE 141010Z 20007KT 05/M02 A3019 RMK A01 T00451015  RH  066%=      5-min Rain = 0
KREE 141015Z 21007KT 04/M02 A3019 RMK A01 T00431015  RH  067%=      5-min Rain = 0
KREE 141020Z 21008KT 05/M01 A3019 RMK A01 T00501011  RH  066%=      5-min Rain = 0
KREE 141025Z 21008KT 05/M01 A3019 RMK A01 T00531012  RH  064%=      5-min Rain = 0
KREE 141030Z 21008KT 05/M01 A3019 RMK A01 T00511012  RH  064%=      5-min Rain = 0
KREE 141035Z 20006KT 05/M01 A302 RMK A01 T00521012  RH  064%=      5-min Rain = 0
KREE 141040Z 20006KT 05/M01 A3019 RMK A01 T00501012  RH  065%=      5-min Rain = 0
KREE 141045Z 20006KT 05/M01 A302 RMK A01 T00471014  RH  065%=      5-min Rain = 0
KREE 141050Z 19007KT 04/M02 A302 RMK A01 T00431016  RH  066%=      5-min Rain = 0
KREE 141055Z 19009KT 04/M02 A302 RMK A01 T00411016  RH  067%=      5-min Rain = 0
KREE 141100Z 19010KT 04/M02 A3021 RMK A01 T00421016  RH  067%=      5-min Rain = 0
KREE 141105Z 19008KT 04/M02 A302 RMK A01 T00421017  RH  066%=      5-min Rain = 0
KREE 141110Z 19008KT 04/M02 A302 RMK A01 T00401017  RH  067%=      5-min Rain = 0
KREE 141115Z 19008KT 04/M02 A302 RMK A01 T00411017  RH  067%=      5-min Rain = 0
KREE 141120Z 20008KT 04/M02 A302 RMK A01 T00431016  RH  066%=      5-min Rain = 0
KREE 141125Z 20009KT 04/M02 A302 RMK A01 T00441015  RH  066%=      5-min Rain = 0
KREE 141130Z 20009KT 05/M01 A302 RMK A01 T00451013  RH  067%=      5-min Rain = 0
KREE 141135Z 20008KT 05/M01 A302 RMK A01 T00471012  RH  066%=      5-min Rain = 0
KREE 141140Z 20008KT 05/M01 A3021 RMK A01 T00471011  RH  067%=      5-min Rain = 0
KREE 141145Z 20007KT 05/M01 A3021 RMK A01 T00461012  RH  067%=      5-min Rain = 0
KREE 141150Z 20006KT 04/M01 A3021 RMK A01 T00431013  RH  068%=      5-min Rain = 0
KREE 141155Z 20007KT 04/M01 A3021 RMK A01 T00411014  RH  068%=      5-min Rain = 0
KREE 141200Z 20008KT 04/M01 A3021 RMK A01 T00421013  RH  068%=      5-min Rain = 0
KREE 141205Z 21008KT 04/M01 A3021 RMK A01 T00441012  RH  068%=      5-min Rain = 0
KREE 141210Z 21007KT 05/M01 A302 RMK A01 T00461011  RH  067%=      5-min Rain = 0
KREE 141215Z 21006KT 05/M01 A3021 RMK A01 T00471011  RH  067%=      5-min Rain = 0
KREE 141220Z 23006KT 05/M01 A3021 RMK A01 T00461012  RH  067%=      5-min Rain = 0
KREE 141225Z 22006KT 05/M01 A302 RMK A01 T00471013  RH  066%=      5-min Rain = 0
KREE 141230Z 21006KT 05/M01 A302 RMK A01 T00471014  RH  065%=      5-min Rain = 0
KREE 141235Z 20006KT 05/M02 A302 RMK A01 T00481015  RH  065%=      5-min Rain = 0
KREE 141240Z 19007KT 05/M01 A302 RMK A01 T00511014  RH  064%=      5-min Rain = 0
KREE 141245Z 19007KT 05/M01 A3019 RMK A01 T00521014  RH  063%=      5-min Rain = 0
KREE 141250Z 20008KT 05/M01 A3019 RMK A01 T00541013  RH  063%=      5-min Rain = 0
KREE 141255Z 20008KT 06/M01 A302 RMK A01 T00561013  RH  062%=      5-min Rain = 0
KREE 141300Z 21007KT 06/M01 A302 RMK A01 T00561014  RH  061%=      5-min Rain = 0
KREE 141305Z 20007KT 06/M02 A3019 RMK A01 T00561015  RH  061%=      5-min Rain = 0
KREE 141310Z 20007KT 05/M02 A302 RMK A01 T00491016  RH  063%=      5-min Rain = 0
KREE 141315Z 20008KT 05/M02 A302 RMK A01 T00471017  RH  064%=      5-min Rain = 0
KREE 141320Z 20008KT 05/M02 A3021 RMK A01 T00461017  RH  064%=      5-min Rain = 0
KREE 141325Z 19007KT 04/M02 A302 RMK A01 T00441018  RH  065%=      5-min Rain = 0
KREE 141330Z 19008KT 05/M02 A302 RMK A01 T00451017  RH  065%=      5-min Rain = 0
KREE 141335Z 19008KT 05/M02 A302 RMK A01 T00481016  RH  064%=      5-min Rain = 0
KREE 141340Z 19009KT 05/M02 A302 RMK A01 T00501016  RH  063%=      5-min Rain = 0
KREE 141345Z 20007KT 05/M02 A302 RMK A01 T00511016  RH  063%=      5-min Rain = 0
KREE 141350Z 21007KT 05/M02 A302 RMK A01 T00541015  RH  062%=      5-min Rain = 0
KREE 141355Z 21007KT 06/M02 A3019 RMK A01 T00571015  RH  061%=      5-min Rain = 0
KREE 141400Z 21007KT 06/M02 A3019 RMK A01 T00601015  RH  060%=      5-min Rain = 0
KREE 141405Z 22006KT 06/M01 A3019 RMK A01 T00621014  RH  059%=      5-min Rain = 0
KREE 141410Z 22006KT 06/M01 A3019 RMK A01 T00641014  RH  058%=      5-min Rain = 0
KREE 141415Z 22006KT 07/M01 A3019 RMK A01 T00651014  RH  058%=      5-min Rain = 0
KREE 141420Z 21007KT 07/M01 A3019 RMK A01 T00671014  RH  057%=      5-min Rain = 0
KREE 141425Z 21007KT 07/M01 A3019 RMK A01 T00701014  RH  056%=      5-min Rain = 0
KREE 141430Z 21008KT 07/M01 A3019 RMK A01 T00721014  RH  055%=      5-min Rain = 0
KREE 141435Z 21007KT 07/M01 A302 RMK A01 T00741014  RH  054%=      5-min Rain = 0
KREE 141440Z 21007KT 08/M01 A302 RMK A01 T00751013  RH  054%=      5-min Rain = 0
KREE 141445Z 22007KT 08/M01 A302 RMK A01 T00771013  RH  053%=      5-min Rain = 0
KREE 141450Z 22006KT 08/M01 A302 RMK A01 T00791012  RH  053%=      5-min Rain = 0
KREE 141455Z 22006KT 08/M01 A302 RMK A01 T00821012  RH  052%=      5-min Rain = 0
KREE 141500Z 23006KT 09/M01 A302 RMK A01 T00861011  RH  051%=      5-min Rain = 0
KREE 141505Z 23006KT 09/M01 A302 RMK A01 T00901011  RH  050%=      5-min Rain = 0
KREE 141510Z 23007KT 10/M01 A302 RMK A01 T00971010  RH  048%=      5-min Rain = 0
KREE 141515Z 23006KT 11/M01 A302 RMK A01 T01071008  RH  045%=      5-min Rain = 0
KREE 141520Z 23006KT 12/M01 A3019 RMK A01 T01151007  RH  043%=      5-min Rain = 0
KREE 141525Z 24008KT 12/M01 A3019 RMK A01 T01231007  RH  041%=      5-min Rain = 0
KREE 141530Z 24007KT 13/M01 A3019 RMK A01 T01271007  RH  040%=      5-min Rain = 0
KREE 141535Z 23008KT 13/M01 A302 RMK A01 T01301007  RH  039%=      5-min Rain = 0
KREE 141540Z 23010KT 13/M01 A302 RMK A01 T01331008  RH  038%=      5-min Rain = 0
KREE 141545Z 23009KT 14/M01 A302 RMK A01 T01371008  RH  037%=      5-min Rain = 0
KREE 141550Z 23010KT 14/M01 A302 RMK A01 T01401011  RH  036%=      5-min Rain = 0
KREE 141555Z 22009KT 14/M01 A302 RMK A01 T01421012  RH  035%=      5-min Rain = 0
KREE 141600Z 23010KT 15/M01 A302 RMK A01 T01471014  RH  033%=      5-min Rain = 0
KREE 141605Z 22011KT 15/M02 A302 RMK A01 T01521015  RH  032%=      5-min Rain = 0
KREE 141610Z 22011KT 16/M02 A302 RMK A01 T01561015  RH  031%=      5-min Rain = 0
KREE 141615Z 22011KT 16/M02 A302 RMK A01 T01621017  RH  030%=      5-min Rain = 0
KREE 141620Z 22013KT 17/M02 A3019 RMK A01 T01671017  RH  029%=      5-min Rain = 0
KREE 141625Z 22013G18KT 17/M02 A3019 RMK A01 T01741016  RH  028%=      5-min Rain = 0
KREE 141630Z 23014KT 18/M02 A3019 RMK A01 T01801016  RH  027%=      5-min Rain = 0
KREE 141635Z 22016KT 18/M02 A3019 RMK A01 T01801020  RH  026%=      5-min Rain = 0
KREE 141640Z 22015KT 18/M02 A3019 RMK A01 T01821021  RH  025%=      5-min Rain = 0
KREE 141645Z 22014KT 19/M02 A3019 RMK A01 T01891021  RH  024%=      5-min Rain = 0
KREE 141650Z 22016KT 19/M03 A3019 RMK A01 T01931026  RH  023%=      5-min Rain = 0
KREE 141655Z 22014KT 20/M03 A3019 RMK A01 T01971026  RH  022%=      5-min Rain = 0
KREE 141700Z 21015KT 20/M03 A3018 RMK A01 T02021027  RH  022%=      5-min Rain = 0
KREE 141705Z 21017KT 20/M03 A3018 RMK A01 T02021030  RH  021%=      5-min Rain = 0
KREE 141710Z 22017KT 20/M04 A3018 RMK A01 T02021037  RH  020%=      5-min Rain = 0
KREE 141715Z 21017KT 20/M04 A3017 RMK A01 T02031036  RH  020%=      5-min Rain = 0
KREE 141720Z 22016KT 21/M04 A3017 RMK A01 T02071041  RH  019%=      5-min Rain = 0
KREE 141725Z 22016G21KT 21/M04 A3017 RMK A01 T02101039  RH  019%=      5-min Rain = 0
KREE 141730Z 22017G23KT 21/M04 A3017 RMK A01 T02141044  RH  018%=      5-min Rain = 0
KREE 141735Z 22015KT 22/M04 A3016 RMK A01 T02191043  RH  017%=      5-min Rain = 0
KREE 141740Z 22015G20KT 22/M04 A3016 RMK A01 T02221043  RH  017%=      5-min Rain = 0
KREE 141745Z 21017KT 22/M05 A3016 RMK A01 T02221046  RH  016%=      5-min Rain = 0
KREE 141750Z 22016KT 22/M05 A3016 RMK A01 T02241046  RH  016%=      5-min Rain = 0
KREE 141755Z 22016KT 23/M05 A3015 RMK A01 T02261050  RH  016%=      5-min Rain = 0
KREE 141800Z 22015G22KT 23/M06 A3015 RMK A01 T02311057  RH  014%=      5-min Rain = 0
KREE 141805Z 21017G22KT 23/M07 A3015 RMK A01 T02341065  RH  013%=      5-min Rain = 0
KREE 141810Z 21017G22KT 23/M07 A3015 RMK A01 T02331068  RH  013%=      5-min Rain = 0
KREE 141815Z 22018G23KT 24/M08 A3015 RMK A01 T02361076  RH  012%=      5-min Rain = 0
KREE 141820Z 22019G25KT 24/M08 A3014 RMK A01 T02351077  RH  012%=      5-min Rain = 0
KREE 141825Z 22020KT 24/M08 A3014 RMK A01 T02361079  RH  012%=      5-min Rain = 0
KREE 141830Z 22018G23KT 24/M08 A3014 RMK A01 T02361078  RH  012%=      5-min Rain = 0
KREE 141835Z 22019KT 24/M08 A3013 RMK A01 T02391076  RH  012%=      5-min Rain = 0
KREE 141840Z 21017G22KT 24/M08 A3013 RMK A01 T02401076  RH  012%=      5-min Rain = 0
KREE 141845Z 22017KT 24/M07 A3013 RMK A01 T02411074  RH  012%=      5-min Rain = 0
KREE 141850Z 23018G23KT 24/M07 A3013 RMK A01 T02421073  RH  012%=      5-min Rain = 0
KREE 141855Z 22017G23KT 24/M07 A3012 RMK A01 T02431072  RH  012%=      5-min Rain = 0
KREE 141900Z 22019KT 25/M07 A3012 RMK A01 T02471070  RH  012%=      5-min Rain = 0
KREE 141905Z 23018G23KT 25/M07 A3012 RMK A01 T02461072  RH  012%=      5-min Rain = 0
KREE 141910Z 22018G24KT 25/M07 A3011 RMK A01 T02511069  RH  012%=      5-min Rain = 0
KREE 141915Z 22019G25KT 25/M07 A3011 RMK A01 T02511074  RH  011%=      5-min Rain = 0
KREE 141920Z 23017G26KT 25/M08 A3011 RMK A01 T02531076  RH  011%=      5-min Rain = 0
KREE 141925Z 21019G24KT 25/M08 A301 RMK A01 T02541078  RH  011%=      5-min Rain = 0
KREE 141930Z 22019G26KT 26/M08 A301 RMK A01 T02551081  RH  010%=      5-min Rain = 0
KREE 141935Z 22019G25KT 26/M08 A3009 RMK A01 T02581083  RH  010%=      5-min Rain = 0
KREE 141940Z 22019G25KT 26/M08 A3009 RMK A01 T02571084  RH  010%=      5-min Rain = 0
KREE 141945Z 22017G22KT 26/M08 A3008 RMK A01 T02611082  RH  010%=      5-min Rain = 0
KREE 141950Z 23019G26KT 26/M08 A3008 RMK A01 T02631082  RH  010%=      5-min Rain = 0
KREE 141955Z 23019G26KT 26/M08 A3008 RMK A01 T02621082  RH  010%=      5-min Rain = 0
KREE 142000Z 22019G25KT 26/M08 A3007 RMK A01 T02631077  RH  010%=      5-min Rain = 0
KREE 142005Z 23019G26KT 26/M08 A3007 RMK A01 T02631076  RH  010%=      5-min Rain = 0
KREE 142010Z 23020G30KT 26/M07 A3006 RMK A01 T02631071  RH  011%=      5-min Rain = 0
KREE 142015Z 22023G28KT 26/M07 A3006 RMK A01 T02631065  RH  011%=      5-min Rain = 0
KREE 142020Z 23020G28KT 26/M06 A3006 RMK A01 T02631063  RH  011%=      5-min Rain = 0
KREE 142025Z 22020G26KT 27/M06 A3005 RMK A01 T02661060  RH  011%=      5-min Rain = 0
KREE 142030Z 22019G25KT 27/M06 A3005 RMK A01 T02671060  RH  011%=      5-min Rain = 0
KREE 142035Z 24019G24KT 27/M06 A3005 RMK A01 T02671060  RH  011%=      5-min Rain = 0
KREE 142040Z 24017G22KT 27/M06 A3005 RMK A01 T02721058  RH  011%=      5-min Rain = 0
KREE 142045Z 22019G26KT 27/M06 A3004 RMK A01 T02721057  RH  011%=      5-min Rain = 0
KREE 142050Z 22021G28KT 27/M05 A3004 RMK A01 T02741054  RH  011%=      5-min Rain = 0
KREE 142055Z 21024G33KT 27/M05 A3004 RMK A01 T02741051  RH  012%=      5-min Rain = 0
KREE 142100Z 22023G29KT 27/M05 A3003 RMK A01 T02741047  RH  012%=      5-min Rain = 0
KREE 142105Z 22022G30KT 28/M05 A3003 RMK A01 T02771045  RH  012%=      5-min Rain = 0
KREE 142110Z 22024G32KT 27/M04 A3003 RMK A01 T02741043  RH  012%=      5-min Rain = 0
KREE 142115Z 23023G32KT 27/M04 A3003 RMK A01 T02711039  RH  013%=      5-min Rain = 0
KREE 142120Z 22024KT 27/M04 A3003 RMK A01 T02691044  RH  013%=      5-min Rain = 0
KREE 142125Z 22023G29KT 27/M05 A3003 RMK A01 T02691049  RH  012%=      5-min Rain = 0
KREE 142130Z 22021G28KT 27/M05 A3003 RMK A01 T02671054  RH  012%=      5-min Rain = 0
KREE 142135Z 23020G28KT 26/M06 A3002 RMK A01 T02641055  RH  012%=      5-min Rain = 0
KREE 142140Z 22020G27KT 26/M06 A3002 RMK A01 T02631056  RH  012%=      5-min Rain = 0
KREE 142145Z 22018G27KT 27/M05 A3002 RMK A01 T02661053  RH  012%=      5-min Rain = 0
KREE 142150Z 22020G27KT 27/M05 A3001 RMK A01 T02741047  RH  012%=      5-min Rain = 0
KREE 142155Z 22022G28KT 27/M05 A3001 RMK A01 T02741048  RH  012%=      5-min Rain = 0
KREE 142200Z 21022G29KT 27/M05 A3001 RMK A01 T02691045  RH  012%=      5-min Rain = 0
KREE 142205Z 22022G33KT 27/M04 A30 RMK A01 T02671040  RH  013%=      5-min Rain = 0
KREE 142210Z 22024G33KT 27/M04 A30 RMK A01 T02681036  RH  013%=      5-min Rain = 0
KREE 142215Z 23025G33KT 27/M04 A30 RMK A01 T02691035  RH  014%=      5-min Rain = 0
KREE 142220Z 22026G32KT 27/M03 A30 RMK A01 T02701033  RH  014%=      5-min Rain = 0
KREE 142225Z 23027G35KT 27/M04 A30 RMK A01 T02701037  RH  013%=      5-min Rain = 0
KREE 142230Z 24024G31KT 27/M04 A30 RMK A01 T02671039  RH  013%=      5-min Rain = 0
KREE 142235Z 23021G30KT 26/M04 A30 RMK A01 T02611038  RH  014%=      5-min Rain = 0
KREE 142240Z 23020KT 26/M04 A30 RMK A01 T02601039  RH  014%=      5-min Rain = 0
KREE 142245Z 22024G33KT 27/M04 A30 RMK A01 T02651040  RH  013%=      5-min Rain = 0
KREE 142250Z 22022G30KT 27/M04 A30 RMK A01 T02681038  RH  013%=      5-min Rain = 0
KREE 142255Z 22019G25KT 27/M03 A30 RMK A01 T02671032  RH  014%=      5-min Rain = 0
KREE 142300Z 22021G29KT 27/M03 A30 RMK A01 T02691034  RH  014%=      5-min Rain = 0
KREE 142305Z 23023G31KT 27/M04 A2999 RMK A01 T02661039  RH  013%=      5-min Rain = 0
KREE 142310Z 23023G30KT 26/M04 A2999 RMK A01 T02631037  RH  014%=      5-min Rain = 0
KREE 142315Z 22024G31KT 26/M03 A30 RMK A01 T02601033  RH  014%=      5-min Rain = 0
KREE 142320Z 22024G30KT 26/M04 A30 RMK A01 T02581035  RH  014%=      5-min Rain = 0
KREE 142325Z 22023G29KT 25/M04 A2999 RMK A01 T02531036  RH  015%=      5-min Rain = 0
KREE 142330Z 23024G30KT 25/M04 A2999 RMK A01 T02531035  RH  015%=      5-min Rain = 0
KREE 142335Z 23022G30KT 26/M04 A2999 RMK A01 T02551036  RH  015%=      5-min Rain = 0
KREE 142340Z 23021G29KT 26/M04 A2999 RMK A01 T02551038  RH  014%=      5-min Rain = 0
KREE 142345Z 23022G29KT 25/M04 A2999 RMK A01 T02541038  RH  014%=      5-min Rain = 0
KREE 142350Z 23021G27KT 25/M04 A2999 RMK A01 T02531039  RH  014%=      5-min Rain = 0
KREE 142355Z 23020G25KT 25/M04 A2999 RMK A01 T02511040  RH  014%=      5-min Rain = 0
KREE 150000Z 23018G24KT 25/M04 A2999 RMK A01 T02481041  RH  015%=      5-min Rain = 0
KREE 150005Z 23017G22KT 25/M04 A2999 RMK A01 T02451041  RH  015%=      5-min Rain = 0
KREE 150010Z 23015KT 24/M04 A2999 RMK A01 T02421041  RH  015%=      5-min Rain = 0
KREE 150015Z 23013KT 24/M04 A2999 RMK A01 T02391041  RH  015%=      5-min Rain = 0
KREE 150020Z 23014KT 24/M04 A2999 RMK A01 T02351040  RH  016%=      5-min Rain = 0
KREE 150025Z 23012KT 23/M04 A2999 RMK A01 T02321041  RH  016%=      5-min Rain = 0
KREE 150030Z 23011KT 23/M04 A2999 RMK A01 T02281040  RH  017%=      5-min Rain = 0
KREE 150035Z 22010KT 22/M04 A2999 RMK A01 T02241040  RH  017%=      5-min Rain = 0
KREE 150040Z 22010KT 22/M04 A30 RMK A01 T02191040  RH  018%=      5-min Rain = 0
KREE 150045Z 22010KT 21/M04 A30 RMK A01 T02141040  RH  018%=      5-min Rain = 0
KREE 150050Z 22010KT 21/M04 A30 RMK A01 T02071040  RH  019%=      5-min Rain = 0
KREE 150055Z 22010KT 20/M04 A30 RMK A01 T02011040  RH  020%=      5-min Rain = 0
KREE 150100Z 22009KT 20/M04 A30 RMK A01 T01951040  RH  020%=      5-min Rain = 0
KREE 150105Z 22009KT 19/M04 A30 RMK A01 T01921040  RH  021%=      5-min Rain = 0
KREE 150110Z 21008KT 19/M04 A30 RMK A01 T01871042  RH  021%=      5-min Rain = 0
KREE 150115Z 22008KT 18/M04 A30 RMK A01 T01821042  RH  022%=      5-min Rain = 0
KREE 150120Z 22009KT 18/M04 A30 RMK A01 T01791042  RH  022%=      5-min Rain = 0
KREE 150125Z 22010KT 18/M04 A30 RMK A01 T01841040  RH  022%=      5-min Rain = 0
KREE 150130Z 22012KT 20/M04 A30 RMK A01 T01971037  RH  021%=      5-min Rain = 0
KREE 150135Z 23013KT 21/M04 A30 RMK A01 T02101037  RH  019%=      5-min Rain = 0
KREE 150140Z 22012KT 21/M04 A30 RMK A01 T02141038  RH  018%=      5-min Rain = 0
KREE 150145Z 21011KT 21/M04 A30 RMK A01 T02121037  RH  019%=      5-min Rain = 0
KREE 150150Z 20009KT 20/M04 A3001 RMK A01 T02041037  RH  020%=      5-min Rain = 0
KREE 150155Z 20011KT 19/M04 A3001 RMK A01 T01941036  RH  021%=      5-min Rain = 0
KREE 150200Z 20011KT 19/M04 A3001 RMK A01 T01931035  RH  021%=      5-min Rain = 0
KREE 150205Z 21011KT 19/M03 A3001 RMK A01 T01931033  RH  022%=      5-min Rain = 0
KREE 150210Z 21011KT 19/M03 A3001 RMK A01 T01911032  RH  022%=      5-min Rain = 0
KREE 150215Z 22010KT 19/M03 A3001 RMK A01 T01911031  RH  022%=      5-min Rain = 0
KREE 150220Z 21010KT 19/M03 A3001 RMK A01 T01911031  RH  022%=      5-min Rain = 0
KREE 150225Z 21010KT 19/M03 A3001 RMK A01 T01901031  RH  022%=      5-min Rain = 0
KREE 150230Z 22010KT 19/M03 A3001 RMK A01 T01891031  RH  023%=      5-min Rain = 0
KREE 150235Z 22012KT 19/M03 A3001 RMK A01 T01911029  RH  023%=      5-min Rain = 0
KREE 150240Z 22013KT 20/M03 A3001 RMK A01 T01951027  RH  022%=      5-min Rain = 0
KREE 150245Z 22013KT 20/M03 A3001 RMK A01 T01961026  RH  022%=      5-min Rain = 0
KREE 150250Z 22014KT 20/M03 A3001 RMK A01 T01971026  RH  022%=      5-min Rain = 0
KREE 150255Z 22013KT 20/M03 A3001 RMK A01 T01961025  RH  023%=      5-min Rain = 0
KREE 150300Z 22013KT 20/M03 A3002 RMK A01 T01951025  RH  023%=      5-min Rain = 0
KREE 150305Z 22013KT 19/M02 A3002 RMK A01 T01941024  RH  023%=      5-min Rain = 0
KREE 150310Z 22013KT 19/M02 A3002 RMK A01 T01921024  RH  023%=      5-min Rain = 0
KREE 150315Z 22012KT 19/M02 A3002 RMK A01 T01921023  RH  023%=      5-min Rain = 0
KREE 150320Z 22012KT 19/M02 A3002 RMK A01 T01931022  RH  024%=      5-min Rain = 0
KREE 150325Z 21011KT 19/M02 A3002 RMK A01 T01941021  RH  024%=      5-min Rain = 0
KREE 150330Z 22011KT 19/M02 A3003 RMK A01 T01911022  RH  024%=      5-min Rain = 0
KREE 150335Z 22010KT 19/M02 A3003 RMK A01 T01891021  RH  024%=      5-min Rain = 0
KREE 150340Z 21010KT 19/M02 A3002 RMK A01 T01871021  RH  025%=      5-min Rain = 0
KREE 150345Z 20009KT 18/M02 A3002 RMK A01 T01841021  RH  025%=      5-min Rain = 0
KREE 150350Z 19007KT 18/M02 A3002 RMK A01 T01791022  RH  026%=      5-min Rain = 0
KREE 150355Z 20008KT 18/M02 A3002 RMK A01 T01761021  RH  026%=      5-min Rain = 0
KREE 150400Z 21009KT 18/M02 A3003 RMK A01 T01791019  RH  026%=      5-min Rain = 0
KREE 150405Z 21011KT 18/M02 A3003 RMK A01 T01831018  RH  026%=      5-min Rain = 0
KREE 150410Z 21011KT 18/M02 A3003 RMK A01 T01821018  RH  026%=      5-min Rain = 0
KREE 150415Z 22010KT 18/M02 A3003 RMK A01 T01781018  RH  026%=      5-min Rain = 0
KREE 150420Z 20009KT 18/M02 A3003 RMK A01 T01761018  RH  027%=      5-min Rain = 0
KREE 150425Z 21010KT 17/M02 A3003 RMK A01 T01741018  RH  027%=      5-min Rain = 0
KREE 150430Z 20009KT 18/M02 A3003 RMK A01 T01761019  RH  027%=      5-min Rain = 0
KREE 150435Z 22010KT 17/M02 A3003 RMK A01 T01731018  RH  027%=      5-min Rain = 0
KREE 150440Z 21010KT 18/M02 A3003 RMK A01 T01771018  RH  027%=      5-min Rain = 0
KREE 150445Z 21010KT 17/M02 A3003 RMK A01 T01731017  RH  028%=      5-min Rain = 0
KREE 150450Z 22009KT 17/M02 A3003 RMK A01 T01731017  RH  028%=      5-min Rain = 0
KREE 150455Z 22009KT 18/M02 A3003 RMK A01 T01751015  RH  028%=      5-min Rain = 0
KREE 150500Z 22009KT 17/M02 A3003 RMK A01 T01731015  RH  028%=      5-min Rain = 0
KREE 150505Z 22009KT 17/M02 A3003 RMK A01 T01691016  RH  029%=      5-min Rain = 0
KREE 150510Z 21009KT 16/M02 A3003 RMK A01 T01641021  RH  029%=      5-min Rain = 0
KREE 150515Z 21009KT 16/M02 A3003 RMK A01 T01581022  RH  029%=      5-min Rain = 0
KREE 150520Z 19009KT 15/M02 A3003 RMK A01 T01531023  RH  030%=      5-min Rain = 0
KREE 150525Z 19009KT 15/M02 A3003 RMK A01 T01471022  RH  032%=      5-min Rain = 0
KREE 150530Z 19009KT 14/M02 A3003 RMK A01 T01441022  RH  032%=      5-min Rain = 0
KREE 150535Z 19009KT 14/M02 A3003 RMK A01 T01421023  RH  032%=      5-min Rain = 0
KREE 150540Z 20009KT 14/M02 A3003 RMK A01 T01401023  RH  033%=      5-min Rain = 0
KREE 150545Z 20009KT 14/M02 A3003 RMK A01 T01421022  RH  033%=      5-min Rain = 0
KREE 150550Z 20009KT 14/M02 A3003 RMK A01 T01431021  RH  032%=      5-min Rain = 0
KREE 150555Z 20009KT 14/M02 A3002 RMK A01 T01441019  RH  033%=      5-min Rain = 0

Page generated in 0.0092 seconds.